sensor_id;sensor_type;location;lat;lon;timestamp;P1;durP1;ratioP1;P2;durP2;ratioP2
6513;SDS011;3290;47.716;9.070;2023-04-03T00:01:14;5.33;;;4.23;;
6513;SDS011;3290;47.716;9.070;2023-04-03T00:03:40;5.10;;;3.80;;
6513;SDS011;3290;47.716;9.070;2023-04-03T00:06:09;6.57;;;4.00;;
6513;SDS011;3290;47.716;9.070;2023-04-03T00:08:36;10.50;;;4.30;;
6513;SDS011;3290;47.716;9.070;2023-04-03T00:11:01;5.43;;;4.60;;
6513;SDS011;3290;47.716;9.070;2023-04-03T00:13:27;5.47;;;4.63;;
6513;SDS011;3290;47.716;9.070;2023-04-03T00:15:53;6.20;;;4.20;;
6513;SDS011;3290;47.716;9.070;2023-04-03T00:18:18;6.50;;;4.63;;
6513;SDS011;3290;47.716;9.070;2023-04-03T00:20:44;4.73;;;4.30;;
6513;SDS011;3290;47.716;9.070;2023-04-03T00:23:10;6.27;;;4.70;;
6513;SDS011;3290;47.716;9.070;2023-04-03T00:25:35;5.67;;;4.47;;
6513;SDS011;3290;47.716;9.070;2023-04-03T00:28:01;6.50;;;4.30;;
6513;SDS011;3290;47.716;9.070;2023-04-03T00:30:27;10.07;;;4.90;;
6513;SDS011;3290;47.716;9.070;2023-04-03T00:32:53;6.40;;;4.33;;
6513;SDS011;3290;47.716;9.070;2023-04-03T00:35:19;6.40;;;4.33;;
6513;SDS011;3290;47.716;9.070;2023-04-03T00:37:45;6.83;;;4.40;;
6513;SDS011;3290;47.716;9.070;2023-04-03T00:40:12;5.23;;;4.10;;
6513;SDS011;3290;47.716;9.070;2023-04-03T00:42:39;8.63;;;4.30;;
6513;SDS011;3290;47.716;9.070;2023-04-03T00:47:31;6.50;;;4.50;;
6513;SDS011;3290;47.716;9.070;2023-04-03T00:49:57;6.60;;;3.97;;
6513;SDS011;3290;47.716;9.070;2023-04-03T00:52:25;8.00;;;4.57;;
6513;SDS011;3290;47.716;9.070;2023-04-03T00:54:56;5.50;;;4.63;;
6513;SDS011;3290;47.716;9.070;2023-04-03T00:57:26;5.40;;;4.23;;
6513;SDS011;3290;47.716;9.070;2023-04-03T00:59:54;9.07;;;5.03;;
6513;SDS011;3290;47.716;9.070;2023-04-03T01:02:22;5.80;;;4.20;;
6513;SDS011;3290;47.716;9.070;2023-04-03T01:04:48;6.57;;;4.20;;
6513;SDS011;3290;47.716;9.070;2023-04-03T01:07:21;7.13;;;4.00;;
6513;SDS011;3290;47.716;9.070;2023-04-03T01:09:49;6.90;;;4.40;;
6513;SDS011;3290;47.716;9.070;2023-04-03T01:14:57;6.13;;;4.87;;
6513;SDS011;3290;47.716;9.070;2023-04-03T01:30:57;5.03;;;4.53;;
6513;SDS011;3290;47.716;9.070;2023-04-03T01:33:30;6.37;;;4.90;;
6513;SDS011;3290;47.716;9.070;2023-04-03T01:35:56;6.03;;;4.53;;
6513;SDS011;3290;47.716;9.070;2023-04-03T01:38:22;5.43;;;4.40;;
6513;SDS011;3290;47.716;9.070;2023-04-03T01:40:47;5.77;;;4.70;;
6513;SDS011;3290;47.716;9.070;2023-04-03T01:43:13;6.43;;;4.80;;
6513;SDS011;3290;47.716;9.070;2023-04-03T01:45:38;6.00;;;4.80;;
6513;SDS011;3290;47.716;9.070;2023-04-03T01:48:03;5.50;;;4.13;;
6513;SDS011;3290;47.716;9.070;2023-04-03T01:50:30;5.63;;;4.40;;
6513;SDS011;3290;47.716;9.070;2023-04-03T01:52:55;7.13;;;4.60;;
6513;SDS011;3290;47.716;9.070;2023-04-03T01:55:21;7.27;;;4.27;;
6513;SDS011;3290;47.716;9.070;2023-04-03T01:57:46;5.10;;;4.60;;
6513;SDS011;3290;47.716;9.070;2023-04-03T02:00:12;4.13;;;3.70;;
6513;SDS011;3290;47.716;9.070;2023-04-03T02:02:38;4.57;;;3.97;;
6513;SDS011;3290;47.716;9.070;2023-04-03T02:05:04;7.77;;;3.80;;
6513;SDS011;3290;47.716;9.070;2023-04-03T02:07:30;4.00;;;3.50;;
6513;SDS011;3290;47.716;9.070;2023-04-03T02:09:55;4.23;;;3.83;;
6513;SDS011;3290;47.716;9.070;2023-04-03T02:12:21;4.10;;;3.70;;
6513;SDS011;3290;47.716;9.070;2023-04-03T02:14:46;7.90;;;5.93;;
6513;SDS011;3290;47.716;9.070;2023-04-03T02:17:11;4.50;;;4.00;;
6513;SDS011;3290;47.716;9.070;2023-04-03T02:19:37;5.60;;;3.20;;
6513;SDS011;3290;47.716;9.070;2023-04-03T02:22:03;3.83;;;3.47;;
6513;SDS011;3290;47.716;9.070;2023-04-03T02:24:29;4.33;;;3.93;;
6513;SDS011;3290;47.716;9.070;2023-04-03T02:26:55;4.27;;;3.80;;
6513;SDS011;3290;47.716;9.070;2023-04-03T02:29:20;4.67;;;4.27;;
6513;SDS011;3290;47.716;9.070;2023-04-03T02:31:46;5.47;;;4.63;;
6513;SDS011;3290;47.716;9.070;2023-04-03T02:34:11;5.10;;;4.03;;
6513;SDS011;3290;47.716;9.070;2023-04-03T02:36:36;7.13;;;5.10;;
6513;SDS011;3290;47.716;9.070;2023-04-03T02:39:02;7.63;;;5.00;;
6513;SDS011;3290;47.716;9.070;2023-04-03T02:41:28;6.97;;;5.47;;
6513;SDS011;3290;47.716;9.070;2023-04-03T02:43:59;7.63;;;4.73;;
6513;SDS011;3290;47.716;9.070;2023-04-03T02:46:25;5.57;;;4.40;;
6513;SDS011;3290;47.716;9.070;2023-04-03T02:48:51;5.77;;;4.77;;
6513;SDS011;3290;47.716;9.070;2023-04-03T02:51:16;9.03;;;5.37;;
6513;SDS011;3290;47.716;9.070;2023-04-03T02:53:41;8.37;;;5.60;;
6513;SDS011;3290;47.716;9.070;2023-04-03T02:56:07;7.30;;;4.70;;
6513;SDS011;3290;47.716;9.070;2023-04-03T02:58:32;9.30;;;5.37;;
6513;SDS011;3290;47.716;9.070;2023-04-03T03:00:57;6.10;;;4.80;;
6513;SDS011;3290;47.716;9.070;2023-04-03T03:03:23;6.90;;;4.70;;
6513;SDS011;3290;47.716;9.070;2023-04-03T03:05:48;6.90;;;5.37;;
6513;SDS011;3290;47.716;9.070;2023-04-03T03:08:13;5.60;;;4.63;;
6513;SDS011;3290;47.716;9.070;2023-04-03T03:10:39;9.73;;;4.50;;
6513;SDS011;3290;47.716;9.070;2023-04-03T03:13:04;6.43;;;5.17;;
6513;SDS011;3290;47.716;9.070;2023-04-03T03:15:30;7.63;;;5.33;;
6513;SDS011;3290;47.716;9.070;2023-04-03T03:17:55;9.43;;;5.83;;
6513;SDS011;3290;47.716;9.070;2023-04-03T03:20:21;6.43;;;5.50;;
6513;SDS011;3290;47.716;9.070;2023-04-03T03:22:46;7.40;;;5.33;;
6513;SDS011;3290;47.716;9.070;2023-04-03T03:25:11;7.33;;;5.20;;
6513;SDS011;3290;47.716;9.070;2023-04-03T03:27:37;6.83;;;4.70;;
6513;SDS011;3290;47.716;9.070;2023-04-03T03:30:02;8.10;;;5.53;;
6513;SDS011;3290;47.716;9.070;2023-04-03T03:32:28;6.00;;;4.50;;
6513;SDS011;3290;47.716;9.070;2023-04-03T03:34:54;5.83;;;4.60;;
6513;SDS011;3290;47.716;9.070;2023-04-03T03:37:19;6.83;;;5.30;;
6513;SDS011;3290;47.716;9.070;2023-04-03T03:39:45;6.10;;;4.30;;
6513;SDS011;3290;47.716;9.070;2023-04-03T03:42:10;6.93;;;5.47;;
6513;SDS011;3290;47.716;9.070;2023-04-03T03:44:36;4.43;;;4.00;;
6513;SDS011;3290;47.716;9.070;2023-04-03T03:47:01;6.83;;;5.00;;
6513;SDS011;3290;47.716;9.070;2023-04-03T03:49:28;6.70;;;4.50;;
6513;SDS011;3290;47.716;9.070;2023-04-03T03:51:53;7.00;;;4.13;;
6513;SDS011;3290;47.716;9.070;2023-04-03T03:54:18;6.50;;;5.10;;
6513;SDS011;3290;47.716;9.070;2023-04-03T03:56:44;7.20;;;4.63;;
6513;SDS011;3290;47.716;9.070;2023-04-03T03:59:11;5.73;;;4.70;;
6513;SDS011;3290;47.716;9.070;2023-04-03T04:01:37;6.13;;;4.30;;
6513;SDS011;3290;47.716;9.070;2023-04-03T04:04:02;4.20;;;3.57;;
6513;SDS011;3290;47.716;9.070;2023-04-03T04:06:28;4.93;;;4.43;;
6513;SDS011;3290;47.716;9.070;2023-04-03T04:08:53;4.83;;;3.80;;
6513;SDS011;3290;47.716;9.070;2023-04-03T04:11:18;5.93;;;4.10;;
6513;SDS011;3290;47.716;9.070;2023-04-03T04:13:45;6.50;;;3.50;;
6513;SDS011;3290;47.716;9.070;2023-04-03T04:16:11;4.57;;;3.07;;
6513;SDS011;3290;47.716;9.070;2023-04-03T04:18:36;4.10;;;3.73;;
6513;SDS011;3290;47.716;9.070;2023-04-03T04:21:01;5.27;;;3.50;;
6513;SDS011;3290;47.716;9.070;2023-04-03T04:23:27;5.27;;;4.10;;
6513;SDS011;3290;47.716;9.070;2023-04-03T04:25:52;9.50;;;6.17;;
6513;SDS011;3290;47.716;9.070;2023-04-03T04:28:18;9.33;;;6.30;;
6513;SDS011;3290;47.716;9.070;2023-04-03T04:30:43;4.93;;;4.13;;
6513;SDS011;3290;47.716;9.070;2023-04-03T04:33:10;4.40;;;3.30;;
6513;SDS011;3290;47.716;9.070;2023-04-03T04:35:36;6.00;;;4.53;;
6513;SDS011;3290;47.716;9.070;2023-04-03T04:38:01;3.53;;;3.10;;
6513;SDS011;3290;47.716;9.070;2023-04-03T04:40:27;4.00;;;2.97;;
6513;SDS011;3290;47.716;9.070;2023-04-03T04:42:52;4.27;;;2.83;;
6513;SDS011;3290;47.716;9.070;2023-04-03T04:45:18;4.90;;;3.13;;
6513;SDS011;3290;47.716;9.070;2023-04-03T04:47:43;6.20;;;3.00;;
6513;SDS011;3290;47.716;9.070;2023-04-03T04:50:09;5.17;;;3.27;;
6513;SDS011;3290;47.716;9.070;2023-04-03T04:52:35;6.47;;;3.37;;
6513;SDS011;3290;47.716;9.070;2023-04-03T04:55:00;3.77;;;3.47;;
6513;SDS011;3290;47.716;9.070;2023-04-03T04:57:26;4.70;;;3.27;;
6513;SDS011;3290;47.716;9.070;2023-04-03T04:59:51;4.57;;;3.60;;
6513;SDS011;3290;47.716;9.070;2023-04-03T05:02:17;6.00;;;3.00;;
6513;SDS011;3290;47.716;9.070;2023-04-03T05:04:42;10.50;;;2.77;;
6513;SDS011;3290;47.716;9.070;2023-04-03T05:07:07;3.30;;;3.00;;
6513;SDS011;3290;47.716;9.070;2023-04-03T05:09:33;4.27;;;3.20;;
6513;SDS011;3290;47.716;9.070;2023-04-03T05:11:58;3.93;;;2.40;;
6513;SDS011;3290;47.716;9.070;2023-04-03T05:14:24;2.67;;;2.47;;
6513;SDS011;3290;47.716;9.070;2023-04-03T05:16:49;3.10;;;2.20;;
6513;SDS011;3290;47.716;9.070;2023-04-03T05:19:17;2.73;;;2.53;;
6513;SDS011;3290;47.716;9.070;2023-04-03T05:21:43;2.97;;;2.60;;
6513;SDS011;3290;47.716;9.070;2023-04-03T05:24:09;3.03;;;2.67;;
6513;SDS011;3290;47.716;9.070;2023-04-03T05:26:34;3.70;;;2.80;;
6513;SDS011;3290;47.716;9.070;2023-04-03T05:29:00;3.57;;;3.00;;
6513;SDS011;3290;47.716;9.070;2023-04-03T05:31:25;3.50;;;2.70;;
6513;SDS011;3290;47.716;9.070;2023-04-03T05:33:54;2.93;;;2.50;;
6513;SDS011;3290;47.716;9.070;2023-04-03T05:36:19;4.27;;;2.50;;
6513;SDS011;3290;47.716;9.070;2023-04-03T05:38:45;3.43;;;2.43;;
6513;SDS011;3290;47.716;9.070;2023-04-03T05:41:10;2.53;;;2.33;;
6513;SDS011;3290;47.716;9.070;2023-04-03T05:43:35;4.43;;;2.47;;
6513;SDS011;3290;47.716;9.070;2023-04-03T05:46:03;3.10;;;2.47;;
6513;SDS011;3290;47.716;9.070;2023-04-03T05:48:29;3.87;;;2.50;;
6513;SDS011;3290;47.716;9.070;2023-04-03T05:50:54;4.20;;;2.67;;
6513;SDS011;3290;47.716;9.070;2023-04-03T05:53:29;3.20;;;2.60;;
6513;SDS011;3290;47.716;9.070;2023-04-03T05:55:57;2.83;;;2.47;;
6513;SDS011;3290;47.716;9.070;2023-04-03T05:58:23;2.80;;;2.47;;
6513;SDS011;3290;47.716;9.070;2023-04-03T06:00:48;7.13;;;2.57;;
6513;SDS011;3290;47.716;9.070;2023-04-03T06:03:13;2.63;;;2.30;;
6513;SDS011;3290;47.716;9.070;2023-04-03T06:05:39;3.53;;;2.40;;
6513;SDS011;3290;47.716;9.070;2023-04-03T06:08:04;3.13;;;2.50;;
6513;SDS011;3290;47.716;9.070;2023-04-03T06:10:30;7.63;;;3.87;;
6513;SDS011;3290;47.716;9.070;2023-04-03T06:12:56;4.57;;;2.67;;
6513;SDS011;3290;47.716;9.070;2023-04-03T06:15:21;8.20;;;2.93;;
6513;SDS011;3290;47.716;9.070;2023-04-03T06:17:47;3.07;;;2.43;;
6513;SDS011;3290;47.716;9.070;2023-04-03T06:20:12;2.50;;;2.27;;
6513;SDS011;3290;47.716;9.070;2023-04-03T06:22:38;6.80;;;2.60;;
6513;SDS011;3290;47.716;9.070;2023-04-03T06:25:04;3.63;;;2.50;;
6513;SDS011;3290;47.716;9.070;2023-04-03T06:27:30;2.87;;;2.30;;
6513;SDS011;3290;47.716;9.070;2023-04-03T06:29:55;4.20;;;2.77;;
6513;SDS011;3290;47.716;9.070;2023-04-03T06:32:21;2.20;;;2.00;;
6513;SDS011;3290;47.716;9.070;2023-04-03T06:34:46;3.30;;;2.37;;
6513;SDS011;3290;47.716;9.070;2023-04-03T06:37:18;5.40;;;3.17;;
6513;SDS011;3290;47.716;9.070;2023-04-03T06:39:47;3.47;;;2.70;;
6513;SDS011;3290;47.716;9.070;2023-04-03T06:42:13;6.87;;;2.73;;
6513;SDS011;3290;47.716;9.070;2023-04-03T06:44:38;3.33;;;2.90;;
6513;SDS011;3290;47.716;9.070;2023-04-03T06:47:04;5.30;;;2.57;;
6513;SDS011;3290;47.716;9.070;2023-04-03T06:49:29;4.90;;;2.73;;
6513;SDS011;3290;47.716;9.070;2023-04-03T06:51:55;3.43;;;2.73;;
6513;SDS011;3290;47.716;9.070;2023-04-03T06:54:21;5.47;;;2.67;;
6513;SDS011;3290;47.716;9.070;2023-04-03T06:56:46;3.30;;;2.83;;
6513;SDS011;3290;47.716;9.070;2023-04-03T06:59:12;6.60;;;2.90;;
6513;SDS011;3290;47.716;9.070;2023-04-03T07:01:38;8.93;;;3.00;;
6513;SDS011;3290;47.716;9.070;2023-04-03T07:04:04;3.60;;;2.90;;
6513;SDS011;3290;47.716;9.070;2023-04-03T07:06:30;3.73;;;2.30;;
6513;SDS011;3290;47.716;9.070;2023-04-03T07:08:57;4.10;;;3.10;;
6513;SDS011;3290;47.716;9.070;2023-04-03T07:11:23;3.23;;;2.83;;
6513;SDS011;3290;47.716;9.070;2023-04-03T07:13:48;4.60;;;2.90;;
6513;SDS011;3290;47.716;9.070;2023-04-03T07:16:14;2.80;;;2.60;;
6513;SDS011;3290;47.716;9.070;2023-04-03T07:18:40;4.00;;;2.93;;
6513;SDS011;3290;47.716;9.070;2023-04-03T07:21:06;3.40;;;3.10;;
6513;SDS011;3290;47.716;9.070;2023-04-03T07:23:32;3.37;;;2.50;;
6513;SDS011;3290;47.716;9.070;2023-04-03T07:25:57;3.53;;;3.00;;
6513;SDS011;3290;47.716;9.070;2023-04-03T07:28:23;5.00;;;3.00;;
6513;SDS011;3290;47.716;9.070;2023-04-03T07:30:54;5.20;;;3.30;;
6513;SDS011;3290;47.716;9.070;2023-04-03T07:33:24;4.70;;;2.77;;
6513;SDS011;3290;47.716;9.070;2023-04-03T07:35:50;6.20;;;3.10;;
6513;SDS011;3290;47.716;9.070;2023-04-03T07:38:16;3.67;;;2.97;;
6513;SDS011;3290;47.716;9.070;2023-04-03T07:40:45;3.83;;;2.57;;
6513;SDS011;3290;47.716;9.070;2023-04-03T07:43:15;3.10;;;2.80;;
6513;SDS011;3290;47.716;9.070;2023-04-03T07:45:40;3.77;;;2.33;;
6513;SDS011;3290;47.716;9.070;2023-04-03T07:48:06;4.10;;;2.37;;
6513;SDS011;3290;47.716;9.070;2023-04-03T07:50:32;4.70;;;3.10;;
6513;SDS011;3290;47.716;9.070;2023-04-03T07:52:58;3.50;;;2.60;;
6513;SDS011;3290;47.716;9.070;2023-04-03T07:55:24;3.30;;;3.00;;
6513;SDS011;3290;47.716;9.070;2023-04-03T07:57:50;2.77;;;2.50;;
6513;SDS011;3290;47.716;9.070;2023-04-03T08:00:15;2.90;;;2.60;;
6513;SDS011;3290;47.716;9.070;2023-04-03T08:02:42;2.43;;;2.23;;
6513;SDS011;3290;47.716;9.070;2023-04-03T08:05:09;6.00;;;2.67;;
6513;SDS011;3290;47.716;9.070;2023-04-03T08:07:36;4.00;;;2.67;;
6513;SDS011;3290;47.716;9.070;2023-04-03T08:10:01;5.17;;;3.47;;
6513;SDS011;3290;47.716;9.070;2023-04-03T08:12:27;7.33;;;2.60;;
6513;SDS011;3290;47.716;9.070;2023-04-03T08:14:53;3.33;;;3.03;;
6513;SDS011;3290;47.716;9.070;2023-04-03T08:17:18;5.83;;;3.13;;
6513;SDS011;3290;47.716;9.070;2023-04-03T08:19:44;4.70;;;2.47;;
6513;SDS011;3290;47.716;9.070;2023-04-03T08:22:09;3.73;;;2.77;;
6513;SDS011;3290;47.716;9.070;2023-04-03T08:24:35;7.93;;;3.00;;
6513;SDS011;3290;47.716;9.070;2023-04-03T08:27:01;2.93;;;2.40;;
6513;SDS011;3290;47.716;9.070;2023-04-03T08:29:26;3.00;;;2.50;;
6513;SDS011;3290;47.716;9.070;2023-04-03T08:31:52;3.00;;;2.50;;
6513;SDS011;3290;47.716;9.070;2023-04-03T08:34:17;6.93;;;3.20;;
6513;SDS011;3290;47.716;9.070;2023-04-03T08:36:44;5.97;;;3.40;;
6513;SDS011;3290;47.716;9.070;2023-04-03T08:39:10;4.80;;;3.50;;
6513;SDS011;3290;47.716;9.070;2023-04-03T08:50:02;6.37;;;2.50;;
6513;SDS011;3290;47.716;9.070;2023-04-03T08:52:42;3.67;;;2.77;;
6513;SDS011;3290;47.716;9.070;2023-04-03T08:57:51;4.70;;;3.50;;
6513;SDS011;3290;47.716;9.070;2023-04-03T09:00:25;3.43;;;2.80;;
6513;SDS011;3290;47.716;9.070;2023-04-03T09:02:55;6.07;;;3.60;;
6513;SDS011;3290;47.716;9.070;2023-04-03T09:05:35;3.67;;;3.37;;
6513;SDS011;3290;47.716;9.070;2023-04-03T09:10:43;4.87;;;4.00;;
6513;SDS011;3290;47.716;9.070;2023-04-03T09:15:43;5.37;;;2.90;;
6513;SDS011;3290;47.716;9.070;2023-04-03T09:20:46;6.90;;;3.20;;
6513;SDS011;3290;47.716;9.070;2023-04-03T09:26:01;3.50;;;2.93;;
6513;SDS011;3290;47.716;9.070;2023-04-03T09:28:31;5.13;;;3.43;;
6513;SDS011;3290;47.716;9.070;2023-04-03T09:31:00;18.43;;;10.33;;
6513;SDS011;3290;47.716;9.070;2023-04-03T09:33:26;16.50;;;8.87;;
6513;SDS011;3290;47.716;9.070;2023-04-03T09:35:53;15.13;;;9.10;;
6513;SDS011;3290;47.716;9.070;2023-04-03T09:38:20;5.40;;;3.13;;
6513;SDS011;3290;47.716;9.070;2023-04-03T09:40:48;4.80;;;3.00;;
6513;SDS011;3290;47.716;9.070;2023-04-03T09:45:45;4.03;;;3.00;;
6513;SDS011;3290;47.716;9.070;2023-04-03T09:50:38;3.20;;;2.40;;
6513;SDS011;3290;47.716;9.070;2023-04-03T09:53:34;4.63;;;3.17;;
6513;SDS011;3290;47.716;9.070;2023-04-03T09:56:03;5.83;;;2.73;;
6513;SDS011;3290;47.716;9.070;2023-04-03T09:59:27;3.40;;;2.50;;
6513;SDS011;3290;47.716;9.070;2023-04-03T10:06:52;5.30;;;3.13;;
6513;SDS011;3290;47.716;9.070;2023-04-03T10:09:24;3.80;;;2.70;;
6513;SDS011;3290;47.716;9.070;2023-04-03T10:14:24;3.77;;;3.17;;
6513;SDS011;3290;47.716;9.070;2023-04-03T10:17:02;3.10;;;2.80;;
6513;SDS011;3290;47.716;9.070;2023-04-03T10:28:02;4.37;;;2.97;;
6513;SDS011;3290;47.716;9.070;2023-04-03T10:30:46;3.20;;;2.50;;
6513;SDS011;3290;47.716;9.070;2023-04-03T10:50:26;5.73;;;3.10;;
6513;SDS011;3290;47.716;9.070;2023-04-03T10:57:46;3.00;;;2.70;;
6513;SDS011;3290;47.716;9.070;2023-04-03T11:00:15;7.27;;;2.70;;
6513;SDS011;3290;47.716;9.070;2023-04-03T11:05:31;4.30;;;2.87;;
6513;SDS011;3290;47.716;9.070;2023-04-03T11:08:08;2.50;;;2.30;;
6513;SDS011;3290;47.716;9.070;2023-04-03T11:10:42;2.30;;;2.10;;
6513;SDS011;3290;47.716;9.070;2023-04-03T11:13:15;2.50;;;2.30;;
6513;SDS011;3290;47.716;9.070;2023-04-03T11:15:45;3.30;;;2.50;;
6513;SDS011;3290;47.716;9.070;2023-04-03T11:18:18;6.10;;;2.43;;
6513;SDS011;3290;47.716;9.070;2023-04-03T11:20:53;7.30;;;5.37;;
6513;SDS011;3290;47.716;9.070;2023-04-03T11:23:29;2.57;;;2.37;;
6513;SDS011;3290;47.716;9.070;2023-04-03T11:26:00;6.10;;;2.77;;
6513;SDS011;3290;47.716;9.070;2023-04-03T11:28:32;4.13;;;2.70;;
6513;SDS011;3290;47.716;9.070;2023-04-03T11:36:08;4.33;;;2.70;;
6513;SDS011;3290;47.716;9.070;2023-04-03T11:38:38;2.43;;;2.23;;
6513;SDS011;3290;47.716;9.070;2023-04-03T11:41:08;3.07;;;2.43;;
6513;SDS011;3290;47.716;9.070;2023-04-03T11:43:40;3.40;;;2.10;;
6513;SDS011;3290;47.716;9.070;2023-04-03T11:46:08;2.40;;;2.20;;
6513;SDS011;3290;47.716;9.070;2023-04-03T11:55:55;4.80;;;2.33;;
6513;SDS011;3290;47.716;9.070;2023-04-03T11:58:29;4.50;;;2.90;;
6513;SDS011;3290;47.716;9.070;2023-04-03T12:13:33;4.63;;;2.50;;
6513;SDS011;3290;47.716;9.070;2023-04-03T12:16:00;3.47;;;2.37;;
6513;SDS011;3290;47.716;9.070;2023-04-03T12:20:57;5.70;;;2.60;;
6513;SDS011;3290;47.716;9.070;2023-04-03T12:26:00;2.87;;;2.13;;
6513;SDS011;3290;47.716;9.070;2023-04-03T12:28:46;7.50;;;2.90;;
6513;SDS011;3290;47.716;9.070;2023-04-03T12:31:14;7.90;;;5.47;;
6513;SDS011;3290;47.716;9.070;2023-04-03T12:36:29;10.30;;;5.50;;
6513;SDS011;3290;47.716;9.070;2023-04-03T12:39:10;2.53;;;2.10;;
6513;SDS011;3290;47.716;9.070;2023-04-03T12:44:34;7.47;;;2.60;;
6513;SDS011;3290;47.716;9.070;2023-04-03T12:47:08;3.70;;;2.40;;
6513;SDS011;3290;47.716;9.070;2023-04-03T12:49:46;6.53;;;2.83;;
6513;SDS011;3290;47.716;9.070;2023-04-03T12:52:19;4.73;;;2.10;;
6513;SDS011;3290;47.716;9.070;2023-04-03T12:55:00;3.33;;;2.50;;
6513;SDS011;3290;47.716;9.070;2023-04-03T12:57:29;6.23;;;3.47;;
6513;SDS011;3290;47.716;9.070;2023-04-03T12:59:55;5.80;;;4.17;;
6513;SDS011;3290;47.716;9.070;2023-04-03T13:02:28;4.47;;;2.30;;
6513;SDS011;3290;47.716;9.070;2023-04-03T13:05:15;2.80;;;2.23;;
6513;SDS011;3290;47.716;9.070;2023-04-03T13:07:42;7.33;;;4.43;;
6513;SDS011;3290;47.716;9.070;2023-04-03T13:12:53;2.77;;;2.30;;
6513;SDS011;3290;47.716;9.070;2023-04-03T13:15:20;3.17;;;2.43;;
6513;SDS011;3290;47.716;9.070;2023-04-03T13:17:48;3.50;;;2.77;;
6513;SDS011;3290;47.716;9.070;2023-04-03T13:25:27;3.73;;;2.57;;
6513;SDS011;3290;47.716;9.070;2023-04-03T13:27:56;3.13;;;2.23;;
6513;SDS011;3290;47.716;9.070;2023-04-03T13:30:30;4.00;;;2.30;;
6513;SDS011;3290;47.716;9.070;2023-04-03T13:32:59;3.40;;;2.37;;
6513;SDS011;3290;47.716;9.070;2023-04-03T13:35:29;2.83;;;2.47;;
6513;SDS011;3290;47.716;9.070;2023-04-03T13:38:25;5.83;;;4.17;;
6513;SDS011;3290;47.716;9.070;2023-04-03T13:40:55;3.37;;;2.50;;
6513;SDS011;3290;47.716;9.070;2023-04-03T13:43:24;6.57;;;2.67;;
6513;SDS011;3290;47.716;9.070;2023-04-03T13:48:26;3.17;;;2.30;;
6513;SDS011;3290;47.716;9.070;2023-04-03T13:51:01;5.03;;;2.93;;
6513;SDS011;3290;47.716;9.070;2023-04-03T13:53:59;4.03;;;2.60;;
6513;SDS011;3290;47.716;9.070;2023-04-03T13:56:37;5.23;;;2.77;;
6513;SDS011;3290;47.716;9.070;2023-04-03T14:04:14;3.60;;;2.70;;
6513;SDS011;3290;47.716;9.070;2023-04-03T14:06:45;2.67;;;1.87;;
6513;SDS011;3290;47.716;9.070;2023-04-03T14:09:11;4.60;;;2.53;;
6513;SDS011;3290;47.716;9.070;2023-04-03T14:11:38;3.67;;;2.83;;
6513;SDS011;3290;47.716;9.070;2023-04-03T14:14:10;3.53;;;3.03;;
6513;SDS011;3290;47.716;9.070;2023-04-03T14:16:39;5.37;;;2.60;;
6513;SDS011;3290;47.716;9.070;2023-04-03T14:19:11;2.83;;;2.43;;
6513;SDS011;3290;47.716;9.070;2023-04-03T14:21:44;4.30;;;2.80;;
6513;SDS011;3290;47.716;9.070;2023-04-03T14:24:10;3.27;;;2.40;;
6513;SDS011;3290;47.716;9.070;2023-04-03T14:26:36;4.83;;;2.33;;
6513;SDS011;3290;47.716;9.070;2023-04-03T14:29:02;3.67;;;2.50;;
6513;SDS011;3290;47.716;9.070;2023-04-03T14:31:27;2.50;;;1.80;;
6513;SDS011;3290;47.716;9.070;2023-04-03T14:33:53;3.17;;;2.00;;
6513;SDS011;3290;47.716;9.070;2023-04-03T14:36:23;2.43;;;2.07;;
6513;SDS011;3290;47.716;9.070;2023-04-03T14:38:51;2.80;;;2.20;;
6513;SDS011;3290;47.716;9.070;2023-04-03T14:41:18;4.30;;;2.47;;
6513;SDS011;3290;47.716;9.070;2023-04-03T14:43:46;3.67;;;2.53;;
6513;SDS011;3290;47.716;9.070;2023-04-03T14:46:16;4.50;;;2.53;;
6513;SDS011;3290;47.716;9.070;2023-04-03T14:48:44;8.80;;;3.03;;
6513;SDS011;3290;47.716;9.070;2023-04-03T14:51:11;2.50;;;2.27;;
6513;SDS011;3290;47.716;9.070;2023-04-03T14:53:37;2.80;;;2.30;;
6513;SDS011;3290;47.716;9.070;2023-04-03T14:56:10;3.30;;;2.10;;
6513;SDS011;3290;47.716;9.070;2023-04-03T14:58:37;2.27;;;1.83;;
6513;SDS011;3290;47.716;9.070;2023-04-03T15:01:03;2.40;;;2.20;;
6513;SDS011;3290;47.716;9.070;2023-04-03T15:03:28;3.30;;;3.00;;
6513;SDS011;3290;47.716;9.070;2023-04-03T15:05:54;2.70;;;2.50;;
6513;SDS011;3290;47.716;9.070;2023-04-03T15:08:23;4.90;;;2.30;;
6513;SDS011;3290;47.716;9.070;2023-04-03T15:10:51;5.17;;;3.03;;
6513;SDS011;3290;47.716;9.070;2023-04-03T15:13:21;4.73;;;2.77;;
6513;SDS011;3290;47.716;9.070;2023-04-03T15:15:47;18.03;;;5.40;;
6513;SDS011;3290;47.716;9.070;2023-04-03T15:18:15;6.63;;;3.23;;
6513;SDS011;3290;47.716;9.070;2023-04-03T15:20:44;6.50;;;3.30;;
6513;SDS011;3290;47.716;9.070;2023-04-03T15:23:13;16.23;;;6.13;;
6513;SDS011;3290;47.716;9.070;2023-04-03T15:25:40;7.40;;;4.10;;
6513;SDS011;3290;47.716;9.070;2023-04-03T15:28:52;3.20;;;2.40;;
6513;SDS011;3290;47.716;9.070;2023-04-03T15:31:03;7.53;;;4.00;;
6513;SDS011;3290;47.716;9.070;2023-04-03T15:33:30;7.27;;;2.90;;
6513;SDS011;3290;47.716;9.070;2023-04-03T15:35:57;8.27;;;4.00;;
6513;SDS011;3290;47.716;9.070;2023-04-03T15:38:22;7.23;;;3.80;;
6513;SDS011;3290;47.716;9.070;2023-04-03T15:40:48;3.00;;;2.50;;
6513;SDS011;3290;47.716;9.070;2023-04-03T15:43:13;10.40;;;3.30;;
6513;SDS011;3290;47.716;9.070;2023-04-03T15:45:40;4.90;;;3.03;;
6513;SDS011;3290;47.716;9.070;2023-04-03T15:48:06;3.70;;;2.87;;
6513;SDS011;3290;47.716;9.070;2023-04-03T15:50:33;4.00;;;2.77;;
6513;SDS011;3290;47.716;9.070;2023-04-03T15:52:59;4.67;;;2.30;;
6513;SDS011;3290;47.716;9.070;2023-04-03T15:55:26;3.97;;;2.20;;
6513;SDS011;3290;47.716;9.070;2023-04-03T15:57:53;3.27;;;2.77;;
6513;SDS011;3290;47.716;9.070;2023-04-03T16:00:19;3.23;;;2.50;;
6513;SDS011;3290;47.716;9.070;2023-04-03T16:02:45;4.60;;;2.20;;
6513;SDS011;3290;47.716;9.070;2023-04-03T16:05:13;2.93;;;2.73;;
6513;SDS011;3290;47.716;9.070;2023-04-03T16:07:42;4.40;;;2.30;;
6513;SDS011;3290;47.716;9.070;2023-04-03T16:10:09;4.60;;;2.40;;
6513;SDS011;3290;47.716;9.070;2023-04-03T16:12:35;3.73;;;2.30;;
6513;SDS011;3290;47.716;9.070;2023-04-03T16:15:01;6.00;;;2.30;;
6513;SDS011;3290;47.716;9.070;2023-04-03T16:17:27;3.00;;;2.30;;
6513;SDS011;3290;47.716;9.070;2023-04-03T16:19:56;3.60;;;2.80;;
6513;SDS011;3290;47.716;9.070;2023-04-03T16:22:22;4.10;;;2.27;;
6513;SDS011;3290;47.716;9.070;2023-04-03T16:24:49;2.90;;;2.43;;
6513;SDS011;3290;47.716;9.070;2023-04-03T16:27:15;5.37;;;2.90;;
6513;SDS011;3290;47.716;9.070;2023-04-03T16:29:41;2.40;;;2.17;;
6513;SDS011;3290;47.716;9.070;2023-04-03T16:32:06;4.60;;;3.70;;
6513;SDS011;3290;47.716;9.070;2023-04-03T16:34:32;5.33;;;3.63;;
6513;SDS011;3290;47.716;9.070;2023-04-03T16:36:58;5.97;;;4.03;;
6513;SDS011;3290;47.716;9.070;2023-04-03T16:39:23;5.53;;;3.50;;
6513;SDS011;3290;47.716;9.070;2023-04-03T16:41:49;4.87;;;3.27;;
6513;SDS011;3290;47.716;9.070;2023-04-03T16:44:14;4.03;;;2.90;;
6513;SDS011;3290;47.716;9.070;2023-04-03T16:46:40;3.83;;;2.80;;
6513;SDS011;3290;47.716;9.070;2023-04-03T16:49:05;3.17;;;2.47;;
6513;SDS011;3290;47.716;9.070;2023-04-03T16:51:31;4.30;;;2.50;;
6513;SDS011;3290;47.716;9.070;2023-04-03T16:53:57;4.73;;;3.10;;
6513;SDS011;3290;47.716;9.070;2023-04-03T16:56:22;7.90;;;3.27;;
6513;SDS011;3290;47.716;9.070;2023-04-03T16:58:48;3.63;;;2.30;;
6513;SDS011;3290;47.716;9.070;2023-04-03T17:01:17;3.67;;;2.30;;
6513;SDS011;3290;47.716;9.070;2023-04-03T17:03:43;3.67;;;2.77;;
6513;SDS011;3290;47.716;9.070;2023-04-03T17:06:10;6.80;;;3.00;;
6513;SDS011;3290;47.716;9.070;2023-04-03T17:08:41;4.17;;;3.10;;
6513;SDS011;3290;47.716;9.070;2023-04-03T17:11:07;4.20;;;2.50;;
6513;SDS011;3290;47.716;9.070;2023-04-03T17:13:33;3.63;;;2.53;;
6513;SDS011;3290;47.716;9.070;2023-04-03T17:15:58;5.50;;;3.70;;
6513;SDS011;3290;47.716;9.070;2023-04-03T17:18:25;6.27;;;3.00;;
6513;SDS011;3290;47.716;9.070;2023-04-03T17:20:51;6.63;;;2.93;;
6513;SDS011;3290;47.716;9.070;2023-04-03T17:23:17;5.27;;;3.23;;
6513;SDS011;3290;47.716;9.070;2023-04-03T17:25:42;4.37;;;3.10;;
6513;SDS011;3290;47.716;9.070;2023-04-03T17:28:08;6.63;;;3.60;;
6513;SDS011;3290;47.716;9.070;2023-04-03T17:30:33;5.67;;;3.20;;
6513;SDS011;3290;47.716;9.070;2023-04-03T17:32:58;6.17;;;2.73;;
6513;SDS011;3290;47.716;9.070;2023-04-03T17:35:24;9.17;;;4.70;;